createdAt,value
2022-12-09T00:00:05.619Z,-1.80
2022-12-09T00:02:32.942Z,-1.72
2022-12-09T00:04:59.531Z,-1.60
2022-12-09T00:07:27.226Z,-1.60
2022-12-09T00:09:53.841Z,-1.57
2022-12-09T00:12:20.331Z,-1.44
2022-12-09T00:14:47.206Z,-1.53
2022-12-09T00:17:14.049Z,-1.56
2022-12-09T00:19:40.615Z,-1.58
2022-12-09T00:22:07.078Z,-1.49
2022-12-09T00:24:33.749Z,-1.41
2022-12-09T00:27:00.249Z,-1.33
2022-12-09T00:29:26.730Z,-1.29
2022-12-09T00:31:53.355Z,-1.13
2022-12-09T00:34:19.904Z,-0.92
2022-12-09T00:36:48.002Z,-1.14
2022-12-09T00:39:14.438Z,-1.21
2022-12-09T00:41:40.899Z,-1.27
2022-12-09T00:44:09.325Z,-1.30
2022-12-09T00:46:35.868Z,-1.01
2022-12-09T00:49:03.826Z,-1.05
2022-12-09T00:51:31.228Z,-1.23
2022-12-09T00:53:57.715Z,-1.09
2022-12-09T00:56:26.575Z,-1.00
2022-12-09T00:58:53.281Z,-0.76
2022-12-09T01:01:20.289Z,-0.90
2022-12-09T01:03:46.843Z,-0.96
2022-12-09T01:06:18.265Z,-0.96
2022-12-09T01:08:45.869Z,-1.01
2022-12-09T01:11:23.271Z,-0.88
2022-12-09T01:13:50.446Z,-0.85
2022-12-09T01:16:19.803Z,-1.02
2022-12-09T01:18:47.477Z,-1.06
2022-12-09T01:21:14.566Z,-1.07
2022-12-09T01:23:41.785Z,-0.85
2022-12-09T01:26:10.583Z,-0.83
2022-12-09T01:28:39.664Z,-0.91
2022-12-09T01:31:13.997Z,-0.87
2022-12-09T01:33:41.091Z,-0.80
2022-12-09T01:36:15.273Z,-1.09
2022-12-09T01:38:41.935Z,-1.08
2022-12-09T01:41:08.792Z,-1.04
2022-12-09T01:43:35.657Z,-1.12
2022-12-09T01:46:02.534Z,-1.09
2022-12-09T01:48:40.397Z,-1.24
2022-12-09T01:51:16.501Z,-1.33
2022-12-09T01:53:48.346Z,-1.36
2022-12-09T01:56:25.531Z,-1.33
2022-12-09T01:58:55.096Z,-1.31
2022-12-09T02:01:21.876Z,-1.07
2022-12-09T02:03:49.589Z,-1.03
2022-12-09T02:06:17.391Z,-1.10
2022-12-09T02:08:45.027Z,-1.17
2022-12-09T02:11:31.440Z,-1.11
2022-12-09T02:14:10.197Z,-1.05
2022-12-09T02:16:46.140Z,-1.25
2022-12-09T02:19:39.392Z,-1.13
2022-12-09T02:22:08.506Z,-1.01
2022-12-09T02:25:26.019Z,-1.06
2022-12-09T02:28:20.667Z,-1.18
2022-12-09T02:31:21.519Z,-0.96
2022-12-09T02:34:13.635Z,-1.06
2022-12-09T02:36:57.327Z,-1.00
2022-12-09T02:39:56.598Z,-0.88
2022-12-09T02:42:26.610Z,-0.81
2022-12-09T02:44:53.451Z,-1.01
2022-12-09T02:47:28.438Z,-0.91
2022-12-09T02:49:59.985Z,-0.86
2022-12-09T02:52:28.298Z,-1.01
2022-12-09T02:54:55.374Z,-0.93
2022-12-09T02:57:28.186Z,-1.04
2022-12-09T02:59:54.730Z,-0.94
2022-12-09T03:02:31.152Z,-0.76
2022-12-09T03:05:21.327Z,-1.05
2022-12-09T03:08:09.659Z,-0.90
2022-12-09T03:10:53.625Z,-0.94
2022-12-09T03:13:46.299Z,-0.95
2022-12-09T03:16:36.114Z,-0.93
2022-12-09T03:19:09.282Z,-0.88
2022-12-09T03:21:40.856Z,-0.74
2022-12-09T03:24:10.304Z,-1.02
2022-12-09T03:26:38.957Z,-0.91
2022-12-09T03:29:11.046Z,-1.02
2022-12-09T03:31:40.507Z,-0.94
2022-12-09T03:34:09.730Z,-0.84
2022-12-09T03:36:39.764Z,-0.87
2022-12-09T03:39:11.166Z,-0.91
2022-12-09T03:41:40.970Z,-0.80
2022-12-09T03:44:10.340Z,-0.82
2022-12-09T03:46:37.967Z,-0.81
2022-12-09T03:49:04.869Z,-0.74
2022-12-09T03:51:48.256Z,-0.76
2022-12-09T03:54:25.804Z,-0.90
2022-12-09T03:56:54.435Z,-0.74
2022-12-09T03:59:23.854Z,-0.80
2022-12-09T04:01:51.740Z,-0.77
2022-12-09T04:04:18.653Z,-0.87
2022-12-09T04:06:45.446Z,-0.89
2022-12-09T04:09:12.195Z,-0.81
2022-12-09T04:11:38.734Z,-0.86
2022-12-09T04:14:08.060Z,-0.96
2022-12-09T04:16:37.241Z,-1.12
2022-12-09T04:19:03.762Z,-0.99
2022-12-09T04:21:30.265Z,-1.12
2022-12-09T04:23:57.033Z,-1.14
2022-12-09T04:26:24.791Z,-1.21
2022-12-09T04:28:51.326Z,-1.18
2022-12-09T04:31:19.830Z,-1.13
2022-12-09T04:33:48.393Z,-1.23
2022-12-09T04:36:18.061Z,-1.18
2022-12-09T04:38:44.887Z,-1.14
2022-12-09T04:41:11.917Z,-1.18
2022-12-09T04:43:38.588Z,-1.02
2022-12-09T04:46:08.115Z,-1.07
2022-12-09T04:48:36.119Z,-1.27
2022-12-09T04:51:03.181Z,-1.13
2022-12-09T04:53:29.999Z,-1.06
2022-12-09T04:56:05.715Z,-1.08
2022-12-09T04:58:32.513Z,-1.12
2022-12-09T05:00:59.706Z,-1.12
2022-12-09T05:03:26.773Z,-1.14
2022-12-09T05:05:53.444Z,-0.96
2022-12-09T05:08:20.344Z,-1.10
2022-12-09T05:10:49.808Z,-1.16
2022-12-09T05:13:17.195Z,-1.09
2022-12-09T05:15:43.762Z,-1.10
2022-12-09T05:18:10.470Z,-1.01
2022-12-09T05:20:39.654Z,-1.16
2022-12-09T05:23:09.501Z,-1.02
2022-12-09T05:25:36.829Z,-0.90
2022-12-09T05:28:03.315Z,-1.08
2022-12-09T05:30:30.030Z,-1.17
2022-12-09T05:32:56.865Z,-1.07
2022-12-09T05:35:23.714Z,-1.16
2022-12-09T05:37:50.186Z,-1.26
2022-12-09T05:40:18.530Z,-1.16
2022-12-09T05:42:45.141Z,-1.20
2022-12-09T05:45:11.921Z,-1.46
2022-12-09T05:47:38.909Z,-1.44
2022-12-09T05:50:08.637Z,-1.53
2022-12-09T05:52:37.760Z,-1.33
2022-12-09T05:55:06.946Z,-1.47
2022-12-09T05:57:34.403Z,-1.54
2022-12-09T06:00:01.323Z,-1.39
2022-12-09T06:02:27.976Z,-1.40
2022-12-09T06:04:55.609Z,-1.26
2022-12-09T06:07:23.466Z,-1.41
2022-12-09T06:09:50.565Z,-1.27
2022-12-09T06:12:17.567Z,-1.42
2022-12-09T06:14:44.311Z,-1.39
2022-12-09T06:17:11.831Z,-1.55
2022-12-09T06:19:38.516Z,-1.55
2022-12-09T06:22:05.437Z,-1.52
2022-12-09T06:24:32.520Z,-1.27
2022-12-09T06:26:59.056Z,-1.30
2022-12-09T06:29:25.767Z,-1.38
2022-12-09T06:31:52.360Z,-1.38
2022-12-09T06:34:19.027Z,-1.48
2022-12-09T06:36:46.326Z,-1.48
2022-12-09T06:39:13.839Z,-1.58
2022-12-09T06:41:42.137Z,-1.41
2022-12-09T06:44:11.700Z,-1.51
2022-12-09T06:46:39.135Z,-1.44
2022-12-09T06:49:05.855Z,-1.38
2022-12-09T06:51:33.241Z,-1.51
2022-12-09T06:53:59.840Z,-1.42
2022-12-09T06:56:27.109Z,-1.52
2022-12-09T06:58:53.685Z,-1.50
2022-12-09T07:01:26.017Z,-1.46
2022-12-09T07:03:55.673Z,-1.76
2022-12-09T07:06:31.134Z,-1.71
2022-12-09T07:09:01.159Z,-1.69
2022-12-09T07:11:28.671Z,-1.66
2022-12-09T07:13:56.266Z,-1.82
2022-12-09T07:16:23.122Z,-1.71
2022-12-09T07:18:50.410Z,-1.68
2022-12-09T07:21:19.490Z,-1.68
2022-12-09T07:23:46.625Z,-1.83
2022-12-09T07:26:14.342Z,-1.66
2022-12-09T07:28:42.634Z,-1.58
2022-12-09T07:31:30.248Z,-1.60
2022-12-09T07:33:58.945Z,-1.57
2022-12-09T07:36:27.986Z,-1.60
2022-12-09T07:39:00.251Z,-1.55
2022-12-09T07:41:27.312Z,-1.42
2022-12-09T07:43:54.412Z,-1.60
2022-12-09T07:46:23.831Z,-1.58
2022-12-09T07:48:51.085Z,-1.43
2022-12-09T07:51:17.958Z,-1.37
2022-12-09T07:53:45.307Z,-1.39
2022-12-09T07:56:14.759Z,-1.37
2022-12-09T07:58:42.457Z,-1.42
2022-12-09T08:01:13.604Z,-1.27
2022-12-09T08:03:42.533Z,-1.07
2022-12-09T08:06:14.032Z,-1.01
2022-12-09T08:08:42.074Z,-1.08
2022-12-09T08:11:13.826Z,-1.06
2022-12-09T08:13:42.408Z,-0.93
2022-12-09T08:16:12.395Z,-0.51
2022-12-09T08:18:40.651Z,-0.59
2022-12-09T08:21:11.207Z,-0.86
2022-12-09T08:23:38.874Z,-0.78
2022-12-09T08:26:06.833Z,-0.72
2022-12-09T08:28:33.910Z,-0.77
2022-12-09T08:31:07.347Z,-0.75
2022-12-09T08:33:34.445Z,-0.67
2022-12-09T08:36:09.694Z,-0.50
2022-12-09T08:38:36.462Z,-0.27
2022-12-09T08:41:14.947Z,-0.41
2022-12-09T08:43:43.548Z,-0.06
2022-12-09T08:46:10.631Z,-0.01
2022-12-09T08:48:39.804Z,-0.01
2022-12-09T08:51:08.050Z,-0.05
2022-12-09T08:53:35.065Z,0.00
2022-12-09T08:56:12.954Z,0.01
2022-12-09T08:58:40.486Z,-0.14
2022-12-09T09:01:07.560Z,-0.07
2022-12-09T09:03:35.168Z,0.33
2022-12-09T09:06:09.559Z,0.32
2022-12-09T09:08:39.206Z,0.06
2022-12-09T09:11:18.051Z,0.03
2022-12-09T09:13:47.032Z,0.06
2022-12-09T09:16:16.756Z,0.00
2022-12-09T09:18:44.204Z,0.14
2022-12-09T09:21:14.143Z,0.06
2022-12-09T09:23:42.034Z,0.06
2022-12-09T09:26:13.745Z,0.14
2022-12-09T09:28:41.212Z,0.31
2022-12-09T09:31:10.927Z,0.37
2022-12-09T09:33:38.119Z,0.15
2022-12-09T09:36:10.439Z,0.41
2022-12-09T09:38:37.736Z,0.48
2022-12-09T09:41:18.880Z,0.68
2022-12-09T09:43:45.882Z,0.62
2022-12-09T09:46:21.821Z,0.12
2022-12-09T09:48:51.108Z,0.14
2022-12-09T09:51:20.659Z,0.13
2022-12-09T09:53:51.437Z,0.26
2022-12-09T09:56:43.195Z,0.11
2022-12-09T09:59:24.645Z,0.40
2022-12-09T10:02:20.969Z,0.17
2022-12-09T10:05:03.724Z,0.17
2022-12-09T10:07:41.352Z,0.68
2022-12-09T10:10:28.704Z,0.41
2022-12-09T10:13:29.423Z,0.49
2022-12-09T10:16:06.521Z,0.80
2022-12-09T10:18:39.866Z,0.47
2022-12-09T10:21:19.389Z,0.64
2022-12-09T10:23:46.901Z,0.48
2022-12-09T10:26:26.535Z,0.60
2022-12-09T10:29:11.495Z,0.42
2022-12-09T10:31:38.970Z,0.46
2022-12-09T10:34:05.826Z,0.67
2022-12-09T10:36:36.016Z,0.79
2022-12-09T10:39:05.195Z,1.19
2022-12-09T10:42:05.622Z,2.42
2022-12-09T10:44:32.796Z,3.17
2022-12-09T10:47:05.447Z,4.01
2022-12-09T10:49:35.867Z,4.70
2022-12-09T10:52:04.620Z,4.67
2022-12-09T10:54:36.496Z,5.23
2022-12-09T10:57:12.889Z,4.92
2022-12-09T10:59:42.443Z,5.52
2022-12-09T11:02:09.057Z,5.13
2022-12-09T11:04:41.777Z,4.55
2022-12-09T11:07:11.933Z,4.92
2022-12-09T11:09:45.826Z,5.48
2022-12-09T11:12:29.340Z,5.83
2022-12-09T11:15:05.860Z,5.77
2022-12-09T11:17:36.052Z,5.74
2022-12-09T11:20:05.890Z,6.03
2022-12-09T11:22:42.646Z,5.94
2022-12-09T11:25:13.042Z,6.37
2022-12-09T11:27:49.565Z,6.82
2022-12-09T11:31:04.802Z,6.26
2022-12-09T11:33:35.125Z,6.15
2022-12-09T11:36:18.977Z,5.41
2022-12-09T11:38:48.584Z,5.61
2022-12-09T11:41:36.893Z,6.11
2022-12-09T11:44:25.604Z,5.78
2022-12-09T11:47:18.262Z,6.47
2022-12-09T11:50:12.290Z,6.63
2022-12-09T11:52:38.749Z,7.89
2022-12-09T11:55:09.718Z,7.76
2022-12-09T11:57:59.771Z,7.34
2022-12-09T12:00:37.212Z,7.03
2022-12-09T12:03:22.746Z,7.00
2022-12-09T12:05:51.897Z,6.33
2022-12-09T12:08:23.402Z,7.70
2022-12-09T12:11:14.864Z,7.05
2022-12-09T12:13:45.956Z,7.21
2022-12-09T12:16:47.809Z,6.79
2022-12-09T12:19:35.348Z,6.22
2022-12-09T12:22:35.889Z,6.73
2022-12-09T12:25:18.092Z,7.53
2022-12-09T12:27:50.743Z,7.44
2022-12-09T12:30:21.089Z,6.53
2022-12-09T12:36:11.042Z,7.05
2022-12-09T12:38:58.662Z,6.69
2022-12-09T12:41:37.819Z,6.92
2022-12-09T12:44:38.084Z,7.58
2022-12-09T12:47:18.329Z,8.08
2022-12-09T12:50:06.740Z,8.41
2022-12-09T12:52:55.915Z,7.68
2022-12-09T12:55:26.079Z,6.94
2022-12-09T12:58:27.820Z,7.40
2022-12-09T13:01:04.340Z,6.46
2022-12-09T13:03:56.851Z,6.48
2022-12-09T13:06:43.804Z,6.51
2022-12-09T13:09:20.862Z,5.87
2022-12-09T13:12:55.389Z,6.40
2022-12-09T13:15:46.864Z,6.40
2022-12-09T13:18:19.294Z,6.99
2022-12-09T13:20:57.416Z,6.66
2022-12-09T13:23:48.514Z,6.96
2022-12-09T13:26:23.487Z,6.93
2022-12-09T13:29:08.587Z,6.03
2022-12-09T13:31:37.850Z,6.47
2022-12-09T13:34:32.206Z,5.55
2022-12-09T13:36:58.774Z,5.63
2022-12-09T13:39:40.427Z,4.69
2022-12-09T13:42:46.598Z,4.83
2022-12-09T13:45:24.537Z,4.44
2022-12-09T13:47:53.314Z,4.86
2022-12-09T13:50:26.321Z,5.27
2022-12-09T13:52:57.596Z,5.17
2022-12-09T13:55:47.700Z,5.31
2022-12-09T13:58:49.751Z,4.71
2022-12-09T14:01:20.511Z,3.12
2022-12-09T14:04:04.904Z,2.54
2022-12-09T14:06:39.076Z,1.75
2022-12-09T14:09:36.198Z,1.02
2022-12-09T14:12:06.410Z,0.68
2022-12-09T14:14:32.814Z,0.49
2022-12-09T14:17:02.903Z,0.36
2022-12-09T14:19:31.367Z,0.32
2022-12-09T14:22:18.625Z,0.12
2022-12-09T14:24:51.254Z,-0.01
2022-12-09T14:27:29.233Z,-0.08
2022-12-09T14:30:01.704Z,-0.11
2022-12-09T14:32:36.918Z,-0.33
2022-12-09T14:35:09.258Z,-0.47
2022-12-09T14:38:07.672Z,-0.44
2022-12-09T14:40:43.138Z,-0.56
2022-12-09T14:43:45.842Z,-0.68
2022-12-09T14:46:24.355Z,-0.74
2022-12-09T14:49:02.273Z,-0.91
2022-12-09T14:51:36.463Z,-0.93
2022-12-09T14:54:13.155Z,-0.91
2022-12-09T14:56:45.055Z,-1.03
2022-12-09T14:59:19.342Z,-0.97
2022-12-09T15:01:48.836Z,-0.91
2022-12-09T15:04:27.036Z,-0.95
2022-12-09T15:07:13.745Z,-1.03
2022-12-09T15:09:50.945Z,-1.08
2022-12-09T15:12:18.692Z,-1.19
2022-12-09T15:14:46.270Z,-1.24
2022-12-09T15:17:26.123Z,-1.26
2022-12-09T15:20:01.425Z,-1.31
2022-12-09T15:22:31.985Z,-1.26
2022-12-09T15:24:59.054Z,-1.27
2022-12-09T15:27:27.294Z,-1.33
2022-12-09T15:29:54.326Z,-1.33
2022-12-09T15:32:25.294Z,-1.36
2022-12-09T15:34:53.034Z,-1.41
2022-12-09T15:37:24.840Z,-1.50
2022-12-09T15:39:59.443Z,-1.43
2022-12-09T15:42:29.967Z,-1.48
2022-12-09T15:45:06.394Z,-1.42
2022-12-09T15:47:46.390Z,-1.41
2022-12-09T15:50:30.790Z,-1.37
2022-12-09T15:53:11.004Z,-1.49
2022-12-09T15:55:39.622Z,-1.47
2022-12-09T15:58:10.284Z,-1.27
2022-12-09T16:00:43.764Z,-1.43
2022-12-09T16:03:10.456Z,-1.42
2022-12-09T16:05:41.871Z,-1.60
2022-12-09T16:08:09.906Z,-1.76
2022-12-09T16:10:46.788Z,-1.73
2022-12-09T16:13:17.116Z,-1.66
2022-12-09T16:15:44.678Z,-1.73
2022-12-09T16:18:35.092Z,-1.62
2022-12-09T16:21:13.346Z,-1.56
2022-12-09T16:23:40.990Z,-1.81
2022-12-09T16:26:07.864Z,-1.90
2022-12-09T16:28:34.722Z,-1.93
2022-12-09T16:31:18.049Z,-2.01
2022-12-09T16:33:48.623Z,-2.13
2022-12-09T16:36:19.309Z,-2.14
2022-12-09T16:39:09.338Z,-2.09
2022-12-09T16:41:51.147Z,-2.13
2022-12-09T16:44:27.849Z,-2.20
2022-12-09T16:47:22.001Z,-2.31
2022-12-09T16:49:48.618Z,-2.38
2022-12-09T16:52:20.425Z,-2.35
2022-12-09T16:54:49.971Z,-2.32
2022-12-09T16:57:18.281Z,-2.35
2022-12-09T16:59:44.961Z,-2.37
2022-12-09T17:02:31.950Z,-2.39
2022-12-09T17:04:58.986Z,-2.50
2022-12-09T17:07:25.432Z,-2.47
2022-12-09T17:09:53.834Z,-2.31
2022-12-09T17:12:20.347Z,-2.31
2022-12-09T17:14:46.849Z,-2.40
2022-12-09T17:17:13.361Z,-2.42
2022-12-09T17:19:42.969Z,-2.43
2022-12-09T17:22:10.500Z,-2.25
2022-12-09T17:24:37.473Z,-2.20
2022-12-09T17:27:03.942Z,-1.96
2022-12-09T17:29:30.343Z,-1.81
2022-12-09T17:31:57.084Z,-1.72
2022-12-09T17:34:23.554Z,-1.64
2022-12-09T17:36:49.962Z,-1.57
2022-12-09T17:39:17.866Z,-1.58
2022-12-09T17:41:44.295Z,-1.56
2022-12-09T17:44:10.740Z,-1.52
2022-12-09T17:46:37.243Z,-1.53
2022-12-09T17:49:03.784Z,-1.58
2022-12-09T17:51:35.658Z,-1.59
2022-12-09T17:54:03.077Z,-1.64
2022-12-09T17:56:29.532Z,-1.57
2022-12-09T17:59:09.063Z,-1.60
2022-12-09T18:01:37.148Z,-1.55
2022-12-09T18:04:09.422Z,-1.57
2022-12-09T18:06:41.451Z,-1.58
2022-12-09T18:09:11.105Z,-1.50
2022-12-09T18:11:38.203Z,-1.51
2022-12-09T18:14:05.405Z,-1.25
2022-12-09T18:16:32.196Z,-1.34
2022-12-09T18:19:08.584Z,-1.41
2022-12-09T18:21:35.434Z,-1.20
2022-12-09T18:24:03.314Z,-1.29
2022-12-09T18:26:32.193Z,-1.28
2022-12-09T18:29:00.557Z,-1.20
2022-12-09T18:31:27.342Z,-0.97
